createdAt,value
2018-02-10T00:01:18.541Z,99.90
2018-02-10T00:03:46.196Z,99.90
2018-02-10T00:06:13.790Z,99.90
2018-02-10T00:08:42.349Z,99.90
2018-02-10T00:11:09.921Z,99.90
2018-02-10T00:13:38.587Z,99.90
2018-02-10T00:16:06.175Z,99.90
2018-02-10T00:18:33.808Z,99.90
2018-02-10T00:21:01.395Z,99.90
2018-02-10T00:23:29.317Z,99.90
2018-02-10T00:25:56.933Z,99.90
2018-02-10T00:28:24.834Z,99.90
2018-02-10T00:30:52.446Z,99.90
2018-02-10T00:33:20.978Z,99.90
2018-02-10T00:35:48.590Z,99.90
2018-02-10T00:38:16.177Z,99.90
2018-02-10T00:40:43.806Z,99.90
2018-02-10T00:43:11.736Z,99.90
2018-02-10T00:45:39.351Z,99.90
2018-02-10T00:48:07.241Z,99.90
2018-02-10T00:50:34.845Z,99.90
2018-02-10T00:53:02.432Z,99.90
2018-02-10T00:55:30.053Z,99.90
2018-02-10T00:57:57.642Z,99.90
2018-02-10T01:00:25.260Z,99.90
2018-02-10T01:02:52.851Z,99.90
2018-02-10T01:05:21.243Z,99.90
2018-02-10T01:07:49.047Z,99.90
2018-02-10T01:10:16.709Z,99.90
2018-02-10T01:12:45.835Z,99.90
2018-02-10T01:15:13.445Z,99.90
2018-02-10T01:17:43.191Z,99.90
2018-02-10T01:20:10.782Z,99.90
2018-02-10T01:22:39.355Z,99.90
2018-02-10T01:25:06.956Z,99.90
2018-02-10T01:27:34.871Z,99.90
2018-02-10T01:30:02.539Z,99.90
2018-02-10T01:32:30.927Z,99.90
2018-02-10T01:34:59.283Z,99.90
2018-02-10T01:37:27.081Z,99.90
2018-02-10T01:39:54.668Z,99.90
2018-02-10T01:42:22.275Z,99.90
2018-02-10T01:44:49.902Z,99.90
2018-02-10T01:47:17.482Z,99.90
2018-02-10T01:49:45.103Z,99.90
2018-02-10T01:52:12.702Z,99.90
2018-02-10T01:54:40.315Z,99.90
2018-02-10T01:57:07.906Z,99.90
2018-02-10T01:59:35.521Z,99.90
2018-02-10T02:02:03.140Z,99.90
2018-02-10T02:04:30.749Z,99.90
2018-02-10T02:06:58.344Z,99.90
2018-02-10T02:09:25.976Z,99.90
2018-02-10T02:11:53.570Z,99.90
2018-02-10T02:14:21.196Z,99.90
2018-02-10T02:16:48.780Z,99.90
2018-02-10T02:19:16.421Z,99.90
2018-02-10T02:21:44.038Z,99.90
2018-02-10T02:24:12.415Z,99.90
2018-02-10T02:26:40.776Z,99.90
2018-02-10T02:29:08.404Z,99.90
2018-02-10T02:31:36.007Z,99.90
2018-02-10T02:34:03.622Z,99.90
2018-02-10T02:36:31.223Z,99.90
2018-02-10T02:38:58.818Z,99.90
2018-02-10T02:41:26.462Z,99.90
2018-02-10T02:43:54.822Z,99.90
2018-02-10T02:46:22.667Z,99.90
2018-02-10T02:48:50.278Z,99.90
2018-02-10T02:51:17.884Z,99.90
2018-02-10T02:53:46.248Z,99.90
2018-02-10T02:56:14.972Z,99.90
2018-02-10T02:58:43.331Z,99.90
2018-02-10T03:01:11.094Z,99.90
2018-02-10T03:03:38.684Z,99.90
2018-02-10T03:06:07.279Z,99.90
2018-02-10T03:08:34.884Z,99.90
2018-02-10T03:11:02.792Z,99.90
2018-02-10T03:13:31.143Z,99.90
2018-02-10T03:15:58.955Z,99.90
2018-02-10T03:18:26.544Z,99.90
2018-02-10T03:20:54.994Z,99.90
2018-02-10T03:23:22.581Z,99.90
2018-02-10T03:25:50.187Z,99.90
2018-02-10T03:28:18.564Z,99.90
2018-02-10T03:30:46.923Z,99.90
2018-02-10T03:33:14.583Z,99.90
2018-02-10T03:35:42.184Z,99.90
2018-02-10T03:38:09.805Z,99.90
2018-02-10T03:40:37.385Z,99.90
2018-02-10T03:43:05.754Z,99.90
2018-02-10T03:45:34.521Z,99.90
2018-02-10T03:48:02.198Z,99.90
2018-02-10T03:50:30.618Z,99.90
2018-02-10T03:52:59.158Z,99.90
2018-02-10T03:55:26.757Z,99.90
2018-02-10T03:57:54.364Z,99.90
2018-02-10T04:00:22.025Z,99.90
2018-02-10T04:02:49.607Z,99.90
2018-02-10T04:05:18.157Z,99.90
2018-02-10T04:07:45.770Z,99.90
2018-02-10T04:10:13.358Z,99.90
2018-02-10T04:12:40.979Z,99.90
2018-02-10T04:15:09.502Z,99.90
2018-02-10T04:17:37.084Z,99.90
2018-02-10T04:20:04.796Z,99.90
2018-02-10T04:22:32.396Z,99.90
2018-02-10T04:25:00.284Z,99.90
2018-02-10T04:27:27.890Z,99.90
2018-02-10T04:29:55.523Z,99.90
2018-02-10T04:32:23.871Z,99.90
2018-02-10T04:34:53.489Z,99.90
2018-02-10T04:37:21.075Z,99.90
2018-02-10T04:39:49.639Z,99.90
2018-02-10T04:42:17.234Z,99.90
2018-02-10T04:44:44.849Z,99.90
2018-02-10T04:47:12.463Z,99.90
2018-02-10T04:49:40.314Z,99.90
2018-02-10T04:52:07.910Z,99.90
2018-02-10T04:54:35.511Z,99.90
2018-02-10T04:57:03.866Z,99.90
2018-02-10T04:59:32.654Z,99.90
2018-02-10T05:02:00.279Z,99.90
2018-02-10T05:04:28.082Z,99.90
2018-02-10T05:06:55.716Z,99.90
2018-02-10T05:09:23.307Z,99.90
2018-02-10T05:11:50.939Z,99.90
2018-02-10T05:14:18.514Z,99.90
2018-02-10T05:16:46.136Z,99.90
2018-02-10T05:19:13.763Z,99.90
2018-02-10T05:21:42.130Z,99.90
2018-02-10T05:24:09.952Z,99.90
2018-02-10T05:26:37.567Z,99.90
2018-02-10T05:29:06.106Z,99.90
2018-02-10T05:31:33.739Z,99.90
2018-02-10T05:34:01.329Z,99.90
2018-02-10T05:36:28.931Z,99.90
2018-02-10T05:38:58.410Z,99.90
2018-02-10T05:41:25.987Z,99.90
2018-02-10T05:43:54.556Z,99.90
2018-02-10T05:46:22.135Z,99.90
2018-02-10T05:48:50.688Z,99.90
2018-02-10T05:51:18.280Z,99.90
2018-02-10T05:53:46.840Z,99.90
2018-02-10T05:56:14.416Z,99.90
2018-02-10T05:58:42.946Z,99.90
2018-02-10T06:01:10.570Z,99.90
2018-02-10T06:03:38.170Z,99.90
2018-02-10T06:06:05.782Z,99.90
2018-02-10T06:08:34.308Z,99.90
2018-02-10T06:11:01.949Z,99.90
2018-02-10T06:13:29.541Z,99.90
2018-02-10T06:15:57.162Z,99.90
2018-02-10T06:18:24.763Z,99.90
2018-02-10T06:20:52.371Z,99.90
2018-02-10T06:23:21.811Z,99.90
2018-02-10T06:25:49.440Z,99.90
2018-02-10T06:28:17.025Z,99.90
2018-02-10T06:30:44.649Z,99.90
2018-02-10T06:33:14.396Z,99.90
2018-02-10T06:35:41.978Z,99.90
2018-02-10T06:38:10.883Z,99.90
2018-02-10T06:40:38.487Z,99.90
2018-02-10T06:43:07.333Z,99.90
2018-02-10T06:45:34.913Z,99.90
2018-02-10T06:48:04.415Z,99.90
2018-02-10T06:50:32.776Z,99.90
2018-02-10T06:53:00.522Z,99.90
2018-02-10T06:55:28.118Z,99.90
2018-02-10T06:57:56.740Z,99.90
2018-02-10T07:00:24.324Z,99.90
2018-02-10T07:02:54.036Z,99.90
2018-02-10T07:05:21.625Z,99.90
2018-02-10T07:07:51.099Z,99.90
2018-02-10T07:10:18.676Z,99.90
2018-02-10T07:12:48.515Z,99.90
2018-02-10T07:15:16.874Z,99.90
2018-02-10T07:17:45.545Z,99.90
2018-02-10T07:20:13.127Z,99.90
2018-02-10T07:22:46.905Z,99.90
2018-02-10T07:25:14.508Z,99.90
2018-02-10T07:27:43.292Z,99.90
2018-02-10T07:30:10.891Z,99.90
2018-02-10T07:32:42.937Z,99.90
2018-02-10T07:35:10.559Z,99.90
2018-02-10T07:37:38.913Z,99.90
2018-02-10T07:40:06.582Z,99.90
2018-02-10T07:42:34.178Z,99.90
2018-02-10T07:45:01.879Z,99.90
2018-02-10T07:47:30.667Z,99.90
2018-02-10T07:49:58.926Z,99.90
2018-02-10T07:52:27.673Z,99.90
2018-02-10T07:54:55.953Z,99.90
2018-02-10T07:57:26.163Z,99.90
2018-02-10T07:59:54.539Z,99.90
2018-02-10T08:02:23.083Z,99.90
2018-02-10T08:04:50.707Z,99.90
2018-02-10T08:07:21.879Z,99.90
2018-02-10T08:09:49.683Z,99.90
2018-02-10T08:12:18.051Z,99.90
2018-02-10T08:14:45.654Z,99.90
2018-02-10T08:17:13.378Z,99.90
2018-02-10T08:19:40.982Z,99.90
2018-02-10T08:22:08.908Z,99.90
2018-02-10T08:24:37.283Z,99.90
2018-02-10T08:27:06.132Z,99.90
2018-02-10T08:29:33.771Z,99.90
2018-02-10T08:32:01.938Z,99.90
2018-02-10T08:34:29.604Z,99.90
2018-02-10T08:36:57.329Z,99.90
2018-02-10T08:39:26.151Z,99.90
2018-02-10T08:41:56.001Z,99.90
2018-02-10T08:44:23.645Z,99.90
2018-02-10T08:46:51.270Z,99.90
2018-02-10T08:49:18.872Z,99.90
2018-02-10T08:51:47.585Z,99.90
2018-02-10T08:54:15.234Z,99.90
2018-02-10T08:56:43.120Z,99.90
2018-02-10T08:59:10.760Z,99.90
2018-02-10T09:01:38.618Z,99.90
2018-02-10T09:04:06.273Z,99.90
2018-02-10T09:06:34.267Z,99.90
2018-02-10T09:09:01.867Z,99.90
2018-02-10T09:11:29.730Z,99.90
2018-02-10T09:13:57.440Z,99.90
2018-02-10T09:16:25.254Z,99.90
2018-02-10T09:18:53.663Z,99.90
2018-02-10T09:21:21.304Z,99.90
2018-02-10T09:23:48.905Z,99.90
2018-02-10T09:26:16.564Z,99.90
2018-02-10T09:28:44.156Z,99.90
2018-02-10T09:31:12.735Z,99.90
2018-02-10T09:33:41.116Z,99.90
2018-02-10T09:36:09.772Z,99.90
2018-02-10T09:38:37.507Z,99.90
2018-02-10T09:41:05.327Z,99.90
2018-02-10T09:43:32.981Z,99.90
2018-02-10T09:46:00.846Z,99.90
2018-02-10T09:48:28.457Z,99.90
2018-02-10T09:50:58.222Z,99.90
2018-02-10T09:53:41.549Z,99.90
2018-02-10T09:56:09.251Z,99.90
2018-02-10T09:58:38.045Z,99.90
2018-02-10T10:01:05.639Z,99.90
2018-02-10T10:03:33.248Z,99.90
2018-02-10T10:06:00.824Z,99.90
2018-02-10T10:08:30.176Z,99.90
2018-02-10T10:10:57.760Z,99.90
2018-02-10T10:13:25.603Z,99.90
2018-02-10T10:15:53.239Z,99.90
2018-02-10T10:18:25.998Z,99.90
2018-02-10T10:20:53.622Z,99.90
2018-02-10T10:23:23.322Z,99.90
2018-02-10T10:25:51.751Z,99.90
2018-02-10T10:28:21.361Z,99.90
2018-02-10T10:30:49.037Z,99.90
2018-02-10T10:33:16.973Z,99.90
2018-02-10T10:35:44.616Z,99.90
2018-02-10T10:38:12.443Z,99.90
2018-02-10T10:40:40.070Z,99.90
2018-02-10T10:43:13.216Z,99.90
2018-02-10T10:45:41.585Z,99.90
2018-02-10T10:48:09.979Z,99.90
2018-02-10T10:50:37.592Z,99.90
2018-02-10T10:53:05.475Z,99.90
2018-02-10T10:55:33.072Z,99.90
2018-02-10T10:58:00.698Z,99.90
2018-02-10T11:00:28.279Z,99.90
2018-02-10T11:02:57.745Z,99.90
2018-02-10T11:05:25.389Z,99.90
2018-02-10T11:07:52.997Z,99.90
2018-02-10T11:10:20.630Z,99.90
2018-02-10T11:12:48.515Z,99.90
2018-02-10T11:15:16.170Z,99.90
2018-02-10T11:17:44.088Z,99.90
2018-02-10T11:20:11.685Z,99.90
2018-02-10T11:22:39.582Z,99.90
2018-02-10T11:25:07.933Z,99.90
2018-02-10T11:27:37.189Z,99.90
2018-02-10T11:30:05.604Z,99.90
2018-02-10T11:32:33.341Z,99.90
2018-02-10T11:35:00.962Z,99.90
2018-02-10T11:37:29.474Z,99.90
2018-02-10T11:39:57.063Z,99.90
2018-02-10T11:42:24.649Z,99.90
2018-02-10T11:44:52.254Z,99.90
2018-02-10T11:47:19.866Z,99.90
2018-02-10T11:49:47.488Z,99.90
2018-02-10T11:52:15.114Z,99.90
2018-02-10T11:54:42.742Z,99.90
2018-02-10T11:57:10.330Z,99.90
2018-02-10T11:59:38.706Z,99.90
2018-02-10T12:02:07.083Z,99.90
2018-02-10T12:04:35.489Z,99.80
2018-02-10T12:07:03.279Z,99.80
2018-02-10T12:09:30.899Z,99.90
2018-02-10T12:11:58.501Z,99.90
2018-02-10T12:14:26.092Z,99.70
2018-02-10T12:16:56.521Z,99.70
2018-02-10T12:19:24.874Z,99.70
2018-02-10T12:21:52.661Z,99.70
2018-02-10T12:24:21.026Z,99.30
2018-02-10T12:26:49.723Z,99.30
2018-02-10T12:29:18.068Z,98.50
2018-02-10T12:31:45.677Z,98.20
2018-02-10T12:34:14.032Z,98.30
2018-02-10T12:36:41.689Z,98.30
2018-02-10T12:39:09.279Z,98.20
2018-02-10T12:41:37.835Z,97.40
2018-02-10T12:44:05.431Z,97.40
2018-02-10T12:46:33.068Z,96.90
2018-02-10T12:52:02.693Z,97.50
2018-02-10T12:54:31.079Z,97.70
2018-02-10T12:56:59.732Z,97.10
2018-02-10T12:59:27.345Z,97.10
2018-02-10T13:01:54.933Z,96.50
2018-02-10T13:04:22.537Z,96.10
2018-02-10T13:06:51.057Z,96.10
2018-02-10T13:09:18.677Z,96.00
2018-02-10T13:11:47.223Z,95.40
2018-02-10T13:14:14.865Z,95.40
2018-02-10T13:16:42.451Z,95.60
2018-02-10T13:19:10.063Z,95.90
2018-02-10T13:21:38.825Z,95.70
2018-02-10T13:24:07.232Z,95.00
2018-02-10T13:26:36.915Z,95.00
2018-02-10T13:29:05.313Z,95.90
2018-02-10T13:31:33.681Z,95.90
2018-02-10T13:34:02.758Z,95.70
2018-02-10T13:36:31.314Z,95.90
2018-02-10T13:38:58.941Z,95.90
2018-02-10T13:41:27.758Z,96.50
2018-02-10T13:43:55.377Z,96.40
2018-02-10T13:46:22.989Z,95.90
2018-02-10T13:48:50.613Z,96.40
2018-02-10T13:51:18.207Z,96.60
2018-02-10T13:53:45.850Z,96.50
2018-02-10T13:56:14.342Z,96.20
2018-02-10T13:58:41.957Z,96.20
2018-02-10T14:01:09.595Z,96.30
2018-02-10T14:03:37.964Z,96.00
2018-02-10T14:06:05.733Z,96.00
2018-02-10T14:08:34.120Z,96.30
2018-02-10T14:11:02.793Z,96.30
2018-02-10T14:13:31.148Z,96.60
2018-02-10T14:15:58.943Z,96.60
2018-02-10T14:18:27.299Z,96.40
2018-02-10T14:20:55.073Z,96.40
2018-02-10T14:23:23.443Z,96.60
2018-02-10T14:25:51.504Z,96.60
2018-02-10T14:28:19.566Z,96.50
2018-02-10T14:30:47.458Z,96.30
2018-02-10T14:33:15.435Z,96.00
2018-02-10T14:35:44.341Z,96.10
2018-02-10T14:38:12.350Z,95.70
2018-02-10T14:40:40.602Z,95.00
2018-02-10T14:43:10.327Z,95.80
2018-02-10T14:45:39.248Z,96.10
2018-02-10T14:48:08.069Z,96.00
2018-02-10T14:50:36.234Z,95.90
2018-02-10T14:53:04.364Z,96.20
2018-02-10T14:55:34.187Z,96.80
2018-02-10T14:58:02.933Z,96.60
2018-02-10T15:00:30.931Z,96.60
2018-02-10T15:02:59.688Z,96.60
2018-02-10T15:05:27.308Z,96.50
2018-02-10T15:07:54.946Z,96.80
2018-02-10T15:10:22.545Z,96.60
2018-02-10T15:12:50.910Z,97.20
2018-02-10T15:15:18.752Z,97.20
2018-02-10T15:17:46.396Z,97.70
2018-02-10T15:20:13.976Z,97.10
2018-02-10T15:22:41.594Z,97.20
2018-02-10T15:25:09.455Z,97.30
2018-02-10T15:27:37.088Z,97.40
2018-02-10T15:30:17.631Z,97.50
2018-02-10T15:32:57.322Z,97.40
2018-02-10T15:35:24.918Z,97.50
2018-02-10T15:37:52.544Z,97.50
2018-02-10T15:40:20.147Z,97.30
2018-02-10T15:42:47.761Z,97.30
2018-02-10T15:45:15.346Z,97.50
2018-02-10T15:47:42.989Z,97.50
2018-02-10T15:50:10.583Z,97.60
2018-02-10T15:52:38.215Z,97.70
2018-02-10T15:55:05.810Z,97.80
2018-02-10T15:57:34.389Z,97.70
2018-02-10T16:00:02.007Z,97.90
2018-02-10T16:02:29.619Z,98.00
2018-02-10T16:04:57.234Z,98.00
2018-02-10T16:07:24.803Z,98.10
2018-02-10T16:09:52.401Z,98.20
2018-02-10T16:12:19.975Z,98.10
2018-02-10T16:14:48.339Z,98.00
2018-02-10T16:17:16.175Z,98.00
2018-02-10T16:19:43.797Z,98.10
2018-02-10T16:22:11.416Z,98.20
2018-02-10T16:24:39.004Z,98.10
2018-02-10T16:27:07.527Z,98.30
2018-02-10T16:29:35.126Z,98.30
2018-02-10T16:32:02.714Z,98.30
2018-02-10T16:34:30.313Z,98.40
2018-02-10T16:36:57.905Z,98.40
2018-02-10T16:39:25.497Z,98.50
2018-02-10T16:41:53.204Z,98.50
2018-02-10T16:44:20.790Z,98.50
2018-02-10T16:46:48.394Z,98.50
2018-02-10T16:49:15.969Z,98.70
2018-02-10T16:51:43.610Z,98.70
2018-02-10T16:54:11.221Z,98.70
2018-02-10T16:56:38.824Z,98.70
2018-02-10T16:59:06.408Z,98.80
2018-02-10T17:01:34.324Z,99.00
2018-02-10T17:04:02.731Z,99.10
2018-02-10T17:06:30.516Z,99.10
2018-02-10T17:08:58.188Z,99.30
2018-02-10T17:11:26.067Z,99.40
2018-02-10T17:13:53.705Z,99.40
2018-02-10T17:16:21.314Z,99.40
2018-02-10T17:18:49.676Z,99.60
2018-02-10T17:21:17.399Z,99.60
2018-02-10T17:23:45.259Z,99.60
2018-02-10T17:26:12.875Z,99.70
2018-02-10T17:28:40.471Z,99.80
2018-02-10T17:31:08.136Z,99.90
2018-02-10T17:33:35.745Z,99.90
2018-02-10T17:36:03.346Z,99.90
2018-02-10T17:38:30.988Z,99.90
2018-02-10T17:40:59.551Z,99.90
2018-02-10T17:43:27.197Z,99.90
2018-02-10T17:45:55.064Z,99.90
2018-02-10T17:48:23.005Z,99.90
2018-02-10T17:50:50.892Z,99.90
2018-02-10T17:53:18.469Z,99.90
2018-02-10T17:55:46.408Z,99.90
2018-02-10T17:58:14.334Z,99.90
2018-02-10T18:00:43.533Z,99.90
2018-02-10T18:03:11.151Z,99.90
2018-02-10T18:05:39.047Z,99.90
2018-02-10T18:08:07.644Z,99.90
2018-02-10T18:10:35.475Z,99.90
2018-02-10T18:13:03.095Z,99.90
2018-02-10T18:15:30.712Z,99.90
2018-02-10T18:17:59.075Z,99.90
2018-02-10T18:20:26.817Z,99.90
2018-02-10T18:22:54.417Z,99.90
2018-02-10T18:25:22.889Z,99.90
2018-02-10T18:27:50.479Z,99.90
2018-02-10T18:30:18.115Z,99.90
2018-02-10T18:32:46.483Z,99.90
2018-02-10T18:35:14.325Z,99.90
2018-02-10T18:37:42.029Z,99.90
2018-02-10T18:40:12.640Z,99.90
2018-02-10T18:42:40.256Z,99.90
2018-02-10T18:45:07.836Z,99.90
2018-02-10T18:47:35.432Z,99.90
2018-02-10T18:50:03.944Z,99.90
2018-02-10T18:52:31.566Z,99.90
2018-02-10T18:54:59.209Z,99.90
2018-02-10T18:57:26.876Z,99.90
2018-02-10T18:59:54.744Z,99.90
2018-02-10T19:02:22.339Z,99.90
2018-02-10T19:04:51.178Z,99.90
2018-02-10T19:07:18.747Z,99.90
2018-02-10T19:09:46.344Z,99.90
2018-02-10T19:12:13.919Z,99.90
2018-02-10T19:14:42.539Z,99.90
2018-02-10T19:17:10.113Z,99.90
2018-02-10T19:19:37.724Z,99.90
2018-02-10T19:22:05.288Z,99.90
2018-02-10T19:24:33.953Z,99.90
2018-02-10T19:27:01.533Z,99.90
2018-02-10T19:29:30.949Z,99.90
2018-02-10T19:31:58.555Z,99.90
2018-02-10T19:34:27.954Z,99.90
2018-02-10T19:36:56.319Z,99.90
2018-02-10T19:39:24.140Z,99.90
2018-02-10T19:41:51.741Z,99.90
2018-02-10T19:44:19.348Z,99.90
2018-02-10T19:46:46.964Z,99.90
2018-02-10T19:49:14.546Z,99.90
2018-02-10T19:51:43.014Z,99.90
2018-02-10T19:54:11.377Z,99.90
2018-02-10T19:56:38.959Z,99.90
2018-02-10T19:59:07.352Z,99.90
2018-02-10T20:01:34.926Z,99.90
2018-02-10T20:04:02.569Z,99.90
2018-02-10T20:06:30.178Z,99.90
2018-02-10T20:08:57.803Z,99.90
2018-02-10T20:11:25.414Z,99.90
2018-02-10T20:13:53.059Z,99.90
2018-02-10T20:16:20.635Z,99.90
2018-02-10T20:18:48.762Z,99.90
2018-02-10T20:21:16.377Z,99.90
2018-02-10T20:23:43.943Z,99.90
2018-02-10T20:26:12.326Z,99.90
2018-02-10T20:28:40.687Z,99.90
2018-02-10T20:31:08.295Z,99.90
2018-02-10T20:33:35.876Z,99.90
2018-02-10T20:36:03.483Z,99.90
2018-02-10T20:38:31.062Z,99.90
2018-02-10T20:40:58.681Z,99.90
2018-02-10T20:43:26.299Z,99.90
2018-02-10T20:45:53.913Z,99.90
2018-02-10T20:48:22.250Z,99.90
2018-02-10T20:50:50.623Z,99.90
2018-02-10T20:53:18.209Z,99.90
2018-02-10T20:55:45.823Z,99.90
2018-02-10T20:58:13.417Z,99.90
2018-02-10T21:00:41.045Z,99.90
2018-02-10T21:03:08.635Z,99.90
2018-02-10T21:05:36.216Z,99.90
2018-02-10T21:08:03.837Z,99.90
2018-02-10T21:10:31.423Z,99.90
2018-02-10T21:12:59.046Z,99.90
2018-02-10T21:15:26.628Z,99.90
2018-02-10T21:17:54.242Z,99.90
2018-02-10T21:20:22.825Z,99.90
2018-02-10T21:22:50.499Z,99.90
2018-02-10T21:25:18.104Z,99.90
2018-02-10T21:27:45.719Z,99.90
2018-02-10T21:30:13.314Z,99.90
2018-02-10T21:32:41.675Z,99.90
2018-02-10T21:35:09.303Z,99.90
2018-02-10T21:37:38.038Z,99.90
2018-02-10T21:40:05.671Z,99.90
2018-02-10T21:42:34.218Z,99.90
2018-02-10T21:45:02.596Z,99.90
2018-02-10T21:47:30.955Z,99.90
2018-02-10T21:49:58.567Z,99.90
2018-02-10T21:52:26.171Z,99.90
2018-02-10T21:54:53.789Z,99.90
2018-02-10T21:57:21.371Z,99.90
2018-02-10T21:59:48.985Z,99.90
2018-02-10T22:02:16.566Z,99.90
2018-02-10T22:04:44.174Z,99.90
2018-02-10T22:07:11.752Z,99.90
2018-02-10T22:09:40.127Z,99.90
2018-02-10T22:12:07.722Z,99.90
2018-02-10T22:14:35.341Z,99.90
2018-02-10T22:17:02.936Z,99.90
2018-02-10T22:19:30.535Z,99.90
2018-02-10T22:21:58.139Z,99.90
2018-02-10T22:24:26.490Z,99.90
2018-02-10T22:26:54.092Z,99.90
2018-02-10T22:29:21.669Z,99.90
2018-02-10T22:31:49.284Z,99.90
2018-02-10T22:34:16.883Z,99.90
2018-02-10T22:36:44.486Z,99.90
2018-02-10T22:39:12.079Z,99.90
2018-02-10T22:41:40.471Z,99.90
2018-02-10T22:44:08.046Z,99.90
2018-02-10T22:46:35.646Z,99.90
2018-02-10T22:49:03.260Z,99.90
2018-02-10T22:51:30.874Z,99.90
2018-02-10T22:53:58.459Z,99.90
2018-02-10T22:56:26.062Z,99.90
2018-02-10T22:58:53.646Z,99.90
2018-02-10T23:01:21.248Z,99.90
2018-02-10T23:03:48.868Z,99.90
2018-02-10T23:06:16.443Z,99.90
2018-02-10T23:08:44.831Z,99.90
2018-02-10T23:11:13.179Z,99.90
2018-02-10T23:13:40.779Z,99.90
2018-02-10T23:16:08.359Z,99.90
2018-02-10T23:18:35.981Z,99.90
2018-02-10T23:21:04.323Z,99.90
2018-02-10T23:23:31.897Z,99.90
2018-02-10T23:25:59.499Z,99.90
2018-02-10T23:28:27.076Z,99.90
2018-02-10T23:30:54.696Z,99.90
2018-02-10T23:33:23.061Z,99.90
2018-02-10T23:35:50.680Z,99.90
2018-02-10T23:38:19.022Z,99.90
2018-02-10T23:40:47.396Z,99.90
2018-02-10T23:43:15.745Z,99.90
2018-02-10T23:45:43.343Z,99.90
2018-02-10T23:48:10.938Z,99.90
2018-02-10T23:50:38.546Z,99.90
2018-02-10T23:53:06.919Z,99.90
2018-02-10T23:55:35.308Z,99.90
2018-02-10T23:58:03.661Z,99.90
